sensor_id;sensor_type;location;lat;lon;timestamp;temperature;humidity
20182;DHT22;10250;50.756;6.172;2024-01-30T19:54:04;8.70;99.90
20182;DHT22;10250;50.756;6.172;2024-01-30T19:56:05;8.60;99.90
20182;DHT22;10250;50.756;6.172;2024-01-30T19:58:06;8.60;99.90
20182;DHT22;10250;50.756;6.172;2024-01-30T20:00:07;8.70;99.90
20182;DHT22;10250;50.756;6.172;2024-01-30T20:02:10;8.60;99.90
20182;DHT22;10250;50.756;6.172;2024-01-30T20:04:15;8.60;99.90
20182;DHT22;10250;50.756;6.172;2024-01-30T20:06:16;8.50;99.90
20182;DHT22;10250;50.756;6.172;2024-01-30T20:08:16;8.50;99.90
20182;DHT22;10250;50.756;6.172;2024-01-30T20:10:17;8.50;99.90
20182;DHT22;10250;50.756;6.172;2024-01-30T20:12:18;8.50;99.90
20182;DHT22;10250;50.756;6.172;2024-01-30T20:14:18;8.50;99.90
20182;DHT22;10250;50.756;6.172;2024-01-30T20:16:19;8.50;99.90
20182;DHT22;10250;50.756;6.172;2024-01-30T20:18:19;8.50;99.90
20182;DHT22;10250;50.756;6.172;2024-01-30T20:20:20;8.50;99.90
20182;DHT22;10250;50.756;6.172;2024-01-30T20:22:21;8.50;99.90
20182;DHT22;10250;50.756;6.172;2024-01-30T20:24:22;8.50;99.90
20182;DHT22;10250;50.756;6.172;2024-01-30T20:26:22;8.50;99.90
20182;DHT22;10250;50.756;6.172;2024-01-30T20:28:24;8.40;99.90
20182;DHT22;10250;50.756;6.172;2024-01-30T20:30:30;8.40;99.90
20182;DHT22;10250;50.756;6.172;2024-01-30T20:32:31;8.40;99.90
20182;DHT22;10250;50.756;6.172;2024-01-30T20:34:32;8.40;99.90
20182;DHT22;10250;50.756;6.172;2024-01-30T20:36:32;8.40;99.90
20182;DHT22;10250;50.756;6.172;2024-01-30T20:38:33;8.40;99.90
20182;DHT22;10250;50.756;6.172;2024-01-30T20:40:34;8.40;99.90
20182;DHT22;10250;50.756;6.172;2024-01-30T20:42:34;8.40;99.90
20182;DHT22;10250;50.756;6.172;2024-01-30T20:44:35;8.40;99.90
20182;DHT22;10250;50.756;6.172;2024-01-30T20:46:36;8.40;99.90
20182;DHT22;10250;50.756;6.172;2024-01-30T20:48:37;8.40;99.90
20182;DHT22;10250;50.756;6.172;2024-01-30T20:50:37;8.40;99.90
20182;DHT22;10250;50.756;6.172;2024-01-30T20:52:38;8.40;99.90
20182;DHT22;10250;50.756;6.172;2024-01-30T20:54:38;8.40;99.90
20182;DHT22;10250;50.756;6.172;2024-01-30T20:56:39;8.30;99.90
20182;DHT22;10250;50.756;6.172;2024-01-30T20:58:40;8.30;99.90
20182;DHT22;10250;50.756;6.172;2024-01-30T21:00:40;8.20;99.90
20182;DHT22;10250;50.756;6.172;2024-01-30T21:02:41;8.30;99.90
20182;DHT22;10250;50.756;6.172;2024-01-30T21:04:42;8.30;99.90
20182;DHT22;10250;50.756;6.172;2024-01-30T21:06:42;8.30;99.90
20182;DHT22;10250;50.756;6.172;2024-01-30T21:08:43;8.30;99.90
20182;DHT22;10250;50.756;6.172;2024-01-30T21:10:44;8.20;99.90
20182;DHT22;10250;50.756;6.172;2024-01-30T21:12:44;8.30;99.90
20182;DHT22;10250;50.756;6.172;2024-01-30T21:14:45;8.30;99.90
20182;DHT22;10250;50.756;6.172;2024-01-30T21:16:47;8.20;99.90
20182;DHT22;10250;50.756;6.172;2024-01-30T21:18:47;8.30;99.90
20182;DHT22;10250;50.756;6.172;2024-01-30T21:20:48;8.30;99.90
20182;DHT22;10250;50.756;6.172;2024-01-30T21:22:49;8.30;99.90
20182;DHT22;10250;50.756;6.172;2024-01-30T21:24:50;8.20;99.90
20182;DHT22;10250;50.756;6.172;2024-01-30T21:26:51;8.10;99.90
20182;DHT22;10250;50.756;6.172;2024-01-30T21:28:51;8.10;99.90
20182;DHT22;10250;50.756;6.172;2024-01-30T21:30:52;8.20;99.90
20182;DHT22;10250;50.756;6.172;2024-01-30T21:32:53;8.20;99.90
20182;DHT22;10250;50.756;6.172;2024-01-30T21:34:53;8.20;99.90
20182;DHT22;10250;50.756;6.172;2024-01-30T21:36:54;8.20;99.90
20182;DHT22;10250;50.756;6.172;2024-01-30T21:38:55;8.20;99.90
20182;DHT22;10250;50.756;6.172;2024-01-30T21:40:55;8.20;99.90
20182;DHT22;10250;50.756;6.172;2024-01-30T21:42:56;8.10;99.90
20182;DHT22;10250;50.756;6.172;2024-01-30T21:44:56;8.10;99.90
20182;DHT22;10250;50.756;6.172;2024-01-30T21:46:58;8.00;99.90
20182;DHT22;10250;50.756;6.172;2024-01-30T21:48:59;8.10;99.90
20182;DHT22;10250;50.756;6.172;2024-01-30T21:50:59;8.10;99.90
20182;DHT22;10250;50.756;6.172;2024-01-30T21:53:00;8.10;99.90
20182;DHT22;10250;50.756;6.172;2024-01-30T21:55:00;8.10;99.90
20182;DHT22;10250;50.756;6.172;2024-01-30T21:57:01;8.10;99.90
20182;DHT22;10250;50.756;6.172;2024-01-30T21:59:01;8.10;99.90
20182;DHT22;10250;50.756;6.172;2024-01-30T22:01:02;8.00;99.90
20182;DHT22;10250;50.756;6.172;2024-01-30T22:03:03;8.10;99.90
20182;DHT22;10250;50.756;6.172;2024-01-30T22:05:04;8.10;99.90
20182;DHT22;10250;50.756;6.172;2024-01-30T22:07:05;8.10;99.90
20182;DHT22;10250;50.756;6.172;2024-01-30T22:09:06;8.10;99.90
20182;DHT22;10250;50.756;6.172;2024-01-30T22:11:07;8.10;99.90
20182;DHT22;10250;50.756;6.172;2024-01-30T22:13:09;8.10;99.90
20182;DHT22;10250;50.756;6.172;2024-01-30T22:15:10;8.00;99.90
20182;DHT22;10250;50.756;6.172;2024-01-30T22:17:11;8.10;99.90
20182;DHT22;10250;50.756;6.172;2024-01-30T22:19:11;8.00;99.90
20182;DHT22;10250;50.756;6.172;2024-01-30T22:21:13;8.00;99.90
20182;DHT22;10250;50.756;6.172;2024-01-30T22:23:15;8.00;99.90
20182;DHT22;10250;50.756;6.172;2024-01-30T22:25:16;8.10;99.90
20182;DHT22;10250;50.756;6.172;2024-01-30T22:27:17;8.10;99.90
20182;DHT22;10250;50.756;6.172;2024-01-30T22:29:17;8.10;99.90
20182;DHT22;10250;50.756;6.172;2024-01-30T22:31:18;8.10;99.90
20182;DHT22;10250;50.756;6.172;2024-01-30T22:33:18;8.00;99.90
20182;DHT22;10250;50.756;6.172;2024-01-30T22:35:19;8.00;99.90
20182;DHT22;10250;50.756;6.172;2024-01-30T22:37:20;7.90;99.90
20182;DHT22;10250;50.756;6.172;2024-01-30T22:39:20;7.90;99.90
20182;DHT22;10250;50.756;6.172;2024-01-30T22:41:22;7.90;99.90
20182;DHT22;10250;50.756;6.172;2024-01-30T22:43:23;7.90;99.90
20182;DHT22;10250;50.756;6.172;2024-01-30T22:45:25;8.00;99.90
20182;DHT22;10250;50.756;6.172;2024-01-30T22:47:25;8.00;99.90
20182;DHT22;10250;50.756;6.172;2024-01-30T22:49:26;7.90;99.90
20182;DHT22;10250;50.756;6.172;2024-01-30T22:51:27;7.90;99.90
20182;DHT22;10250;50.756;6.172;2024-01-30T22:53:28;7.90;99.90
20182;DHT22;10250;50.756;6.172;2024-01-30T22:55:29;8.00;99.90
20182;DHT22;10250;50.756;6.172;2024-01-30T22:57:29;8.00;99.90
20182;DHT22;10250;50.756;6.172;2024-01-30T22:59:32;7.80;99.90
20182;DHT22;10250;50.756;6.172;2024-01-30T23:01:32;7.90;99.90
20182;DHT22;10250;50.756;6.172;2024-01-30T23:03:33;7.80;99.90
20182;DHT22;10250;50.756;6.172;2024-01-30T23:05:33;7.80;99.90
20182;DHT22;10250;50.756;6.172;2024-01-30T23:07:34;7.90;99.90
20182;DHT22;10250;50.756;6.172;2024-01-30T23:09:40;7.90;99.90
20182;DHT22;10250;50.756;6.172;2024-01-30T23:11:41;7.90;99.90
20182;DHT22;10250;50.756;6.172;2024-01-30T23:13:41;7.90;99.90
20182;DHT22;10250;50.756;6.172;2024-01-30T23:15:42;8.00;99.90
20182;DHT22;10250;50.756;6.172;2024-01-30T23:17:43;7.90;99.90
20182;DHT22;10250;50.756;6.172;2024-01-30T23:19:43;7.80;99.90
20182;DHT22;10250;50.756;6.172;2024-01-30T23:21:44;7.80;99.90
20182;DHT22;10250;50.756;6.172;2024-01-30T23:23:45;7.70;99.90
20182;DHT22;10250;50.756;6.172;2024-01-30T23:25:45;7.70;99.90
20182;DHT22;10250;50.756;6.172;2024-01-30T23:27:46;7.70;99.90
20182;DHT22;10250;50.756;6.172;2024-01-30T23:29:46;7.70;99.90
20182;DHT22;10250;50.756;6.172;2024-01-30T23:31:47;7.80;99.90
20182;DHT22;10250;50.756;6.172;2024-01-30T23:33:48;7.80;99.90
20182;DHT22;10250;50.756;6.172;2024-01-30T23:35:49;7.70;99.90
20182;DHT22;10250;50.756;6.172;2024-01-30T23:37:49;7.80;99.90
20182;DHT22;10250;50.756;6.172;2024-01-30T23:39:50;7.80;99.90
20182;DHT22;10250;50.756;6.172;2024-01-30T23:41:52;7.90;99.90
20182;DHT22;10250;50.756;6.172;2024-01-30T23:43:53;7.90;99.90
20182;DHT22;10250;50.756;6.172;2024-01-30T23:45:53;7.80;99.90
20182;DHT22;10250;50.756;6.172;2024-01-30T23:47:54;7.80;99.90
20182;DHT22;10250;50.756;6.172;2024-01-30T23:49:54;7.80;99.90
20182;DHT22;10250;50.756;6.172;2024-01-30T23:51:55;7.70;99.90
20182;DHT22;10250;50.756;6.172;2024-01-30T23:53:55;7.70;99.90
20182;DHT22;10250;50.756;6.172;2024-01-30T23:55:59;7.70;99.90
20182;DHT22;10250;50.756;6.172;2024-01-30T23:58:03;7.70;99.90
